sensor_id;sensor_type;location;lat;lon;timestamp;P1;durP1;ratioP1;P2;durP2;ratioP2
59938;SDS011;45801;51.810;19.444;2023-04-28T00:01:50;26.90;;;17.20;;
59938;SDS011;45801;51.810;19.444;2023-04-28T00:04:16;29.10;;;19.10;;
59938;SDS011;45801;51.810;19.444;2023-04-28T00:06:42;28.40;;;18.40;;
59938;SDS011;45801;51.810;19.444;2023-04-28T00:09:08;28.70;;;19.30;;
59938;SDS011;45801;51.810;19.444;2023-04-28T00:11:36;32.00;;;19.40;;
59938;SDS011;45801;51.810;19.444;2023-04-28T00:14:03;32.40;;;19.90;;
59938;SDS011;45801;51.810;19.444;2023-04-28T00:16:29;29.40;;;18.20;;
59938;SDS011;45801;51.810;19.444;2023-04-28T00:18:55;28.90;;;19.40;;
59938;SDS011;45801;51.810;19.444;2023-04-28T00:21:22;27.60;;;17.60;;
59938;SDS011;45801;51.810;19.444;2023-04-28T00:23:47;28.20;;;17.50;;
59938;SDS011;45801;51.810;19.444;2023-04-28T00:26:13;29.00;;;17.60;;
59938;SDS011;45801;51.810;19.444;2023-04-28T00:28:39;28.80;;;18.20;;
59938;SDS011;45801;51.810;19.444;2023-04-28T00:31:09;25.30;;;17.30;;
59938;SDS011;45801;51.810;19.444;2023-04-28T00:33:37;29.70;;;17.80;;
59938;SDS011;45801;51.810;19.444;2023-04-28T00:36:03;18.10;;;11.90;;
59938;SDS011;45801;51.810;19.444;2023-04-28T00:38:29;29.40;;;17.40;;
59938;SDS011;45801;51.810;19.444;2023-04-28T00:40:55;28.40;;;17.50;;
59938;SDS011;45801;51.810;19.444;2023-04-28T00:43:21;27.60;;;16.80;;
59938;SDS011;45801;51.810;19.444;2023-04-28T00:45:50;27.20;;;17.40;;
59938;SDS011;45801;51.810;19.444;2023-04-28T00:48:17;25.60;;;15.50;;
59938;SDS011;45801;51.810;19.444;2023-04-28T00:50:44;25.60;;;16.40;;
59938;SDS011;45801;51.810;19.444;2023-04-28T00:53:11;26.60;;;15.40;;
59938;SDS011;45801;51.810;19.444;2023-04-28T00:55:37;22.00;;;13.60;;
59938;SDS011;45801;51.810;19.444;2023-04-28T01:01:08;22.60;;;14.40;;
59938;SDS011;45801;51.810;19.444;2023-04-28T01:03:39;22.40;;;14.30;;
59938;SDS011;45801;51.810;19.444;2023-04-28T01:06:06;21.20;;;13.00;;
59938;SDS011;45801;51.810;19.444;2023-04-28T01:08:34;22.70;;;14.50;;
59938;SDS011;45801;51.810;19.444;2023-04-28T01:11:01;25.00;;;14.40;;
59938;SDS011;45801;51.810;19.444;2023-04-28T01:13:27;20.70;;;14.10;;
59938;SDS011;45801;51.810;19.444;2023-04-28T01:15:54;21.00;;;13.60;;
59938;SDS011;45801;51.810;19.444;2023-04-28T01:18:21;21.80;;;13.60;;
59938;SDS011;45801;51.810;19.444;2023-04-28T01:20:49;23.00;;;13.80;;
59938;SDS011;45801;51.810;19.444;2023-04-28T01:23:15;23.20;;;14.20;;
59938;SDS011;45801;51.810;19.444;2023-04-28T01:25:41;22.40;;;15.20;;
59938;SDS011;45801;51.810;19.444;2023-04-28T01:28:08;26.50;;;17.00;;
59938;SDS011;45801;51.810;19.444;2023-04-28T01:30:35;27.40;;;17.50;;
59938;SDS011;45801;51.810;19.444;2023-04-28T01:33:02;28.20;;;17.80;;
59938;SDS011;45801;51.810;19.444;2023-04-28T01:35:28;27.00;;;17.50;;
59938;SDS011;45801;51.810;19.444;2023-04-28T01:37:54;28.10;;;17.40;;
59938;SDS011;45801;51.810;19.444;2023-04-28T01:40:20;27.40;;;17.60;;
59938;SDS011;45801;51.810;19.444;2023-04-28T01:42:46;28.50;;;18.40;;
59938;SDS011;45801;51.810;19.444;2023-04-28T01:45:14;31.00;;;18.40;;
59938;SDS011;45801;51.810;19.444;2023-04-28T01:47:40;29.20;;;17.20;;
59938;SDS011;45801;51.810;19.444;2023-04-28T01:50:06;28.20;;;18.60;;
59938;SDS011;45801;51.810;19.444;2023-04-28T01:52:32;27.50;;;17.70;;
59938;SDS011;45801;51.810;19.444;2023-04-28T01:54:58;28.00;;;16.90;;
59938;SDS011;45801;51.810;19.444;2023-04-28T01:57:24;28.70;;;16.60;;
59938;SDS011;45801;51.810;19.444;2023-04-28T01:59:50;26.70;;;17.50;;
59938;SDS011;45801;51.810;19.444;2023-04-28T02:02:16;29.00;;;16.90;;
59938;SDS011;45801;51.810;19.444;2023-04-28T02:04:42;26.80;;;16.20;;
59938;SDS011;45801;51.810;19.444;2023-04-28T02:07:08;27.50;;;17.20;;
59938;SDS011;45801;51.810;19.444;2023-04-28T02:09:34;27.10;;;16.50;;
59938;SDS011;45801;51.810;19.444;2023-04-28T02:12:00;29.10;;;16.70;;
59938;SDS011;45801;51.810;19.444;2023-04-28T02:14:27;26.40;;;16.60;;
59938;SDS011;45801;51.810;19.444;2023-04-28T02:16:53;27.80;;;17.00;;
59938;SDS011;45801;51.810;19.444;2023-04-28T02:19:19;30.10;;;17.00;;
59938;SDS011;45801;51.810;19.444;2023-04-28T02:21:45;22.30;;;15.20;;
59938;SDS011;45801;51.810;19.444;2023-04-28T02:24:11;27.40;;;17.40;;
59938;SDS011;45801;51.810;19.444;2023-04-28T02:26:37;26.80;;;15.90;;
59938;SDS011;45801;51.810;19.444;2023-04-28T02:29:03;28.30;;;16.60;;
59938;SDS011;45801;51.810;19.444;2023-04-28T02:31:28;25.10;;;16.30;;
59938;SDS011;45801;51.810;19.444;2023-04-28T02:33:54;25.20;;;15.70;;
59938;SDS011;45801;51.810;19.444;2023-04-28T02:36:20;27.60;;;17.10;;
59938;SDS011;45801;51.810;19.444;2023-04-28T02:38:46;26.70;;;17.10;;
59938;SDS011;45801;51.810;19.444;2023-04-28T02:41:12;27.00;;;17.70;;
59938;SDS011;45801;51.810;19.444;2023-04-28T02:43:39;28.20;;;18.60;;
59938;SDS011;45801;51.810;19.444;2023-04-28T02:46:06;27.80;;;17.80;;
59938;SDS011;45801;51.810;19.444;2023-04-28T02:48:32;26.20;;;17.40;;
59938;SDS011;45801;51.810;19.444;2023-04-28T02:51:00;30.80;;;17.70;;
59938;SDS011;45801;51.810;19.444;2023-04-28T02:53:26;28.20;;;17.40;;
59938;SDS011;45801;51.810;19.444;2023-04-28T02:55:52;28.50;;;17.70;;
59938;SDS011;45801;51.810;19.444;2023-04-28T02:58:18;32.20;;;17.70;;
59938;SDS011;45801;51.810;19.444;2023-04-28T03:00:45;28.30;;;17.00;;
59938;SDS011;45801;51.810;19.444;2023-04-28T03:03:11;29.10;;;17.70;;
59938;SDS011;45801;51.810;19.444;2023-04-28T03:05:37;28.20;;;17.80;;
59938;SDS011;45801;51.810;19.444;2023-04-28T03:08:03;25.80;;;16.60;;
59938;SDS011;45801;51.810;19.444;2023-04-28T03:10:29;26.60;;;15.90;;
59938;SDS011;45801;51.810;19.444;2023-04-28T03:12:55;25.70;;;16.60;;
59938;SDS011;45801;51.810;19.444;2023-04-28T03:15:21;25.60;;;16.50;;
59938;SDS011;45801;51.810;19.444;2023-04-28T03:17:47;26.00;;;16.80;;
59938;SDS011;45801;51.810;19.444;2023-04-28T03:20:13;23.70;;;16.20;;
59938;SDS011;45801;51.810;19.444;2023-04-28T03:22:39;25.00;;;15.80;;
59938;SDS011;45801;51.810;19.444;2023-04-28T03:25:05;28.40;;;17.00;;
59938;SDS011;45801;51.810;19.444;2023-04-28T03:27:31;25.70;;;16.60;;
59938;SDS011;45801;51.810;19.444;2023-04-28T03:29:56;25.10;;;15.90;;
59938;SDS011;45801;51.810;19.444;2023-04-28T03:32:22;26.80;;;16.90;;
59938;SDS011;45801;51.810;19.444;2023-04-28T03:34:48;26.10;;;15.90;;
59938;SDS011;45801;51.810;19.444;2023-04-28T03:37:14;27.10;;;15.60;;
59938;SDS011;45801;51.810;19.444;2023-04-28T03:39:40;24.50;;;16.20;;
59938;SDS011;45801;51.810;19.444;2023-04-28T03:42:07;26.20;;;15.30;;
59938;SDS011;45801;51.810;19.444;2023-04-28T03:44:34;23.60;;;15.20;;
59938;SDS011;45801;51.810;19.444;2023-04-28T03:47:00;24.20;;;14.60;;
59938;SDS011;45801;51.810;19.444;2023-04-28T03:49:26;23.00;;;15.50;;
59938;SDS011;45801;51.810;19.444;2023-04-28T03:51:52;26.50;;;16.20;;
59938;SDS011;45801;51.810;19.444;2023-04-28T03:54:18;22.50;;;15.10;;
59938;SDS011;45801;51.810;19.444;2023-04-28T03:56:44;26.40;;;15.70;;
59938;SDS011;45801;51.810;19.444;2023-04-28T03:59:10;27.50;;;16.60;;
59938;SDS011;45801;51.810;19.444;2023-04-28T04:01:37;34.10;;;16.80;;
59938;SDS011;45801;51.810;19.444;2023-04-28T04:04:03;29.20;;;16.80;;
59938;SDS011;45801;51.810;19.444;2023-04-28T04:06:29;23.90;;;16.80;;
59938;SDS011;45801;51.810;19.444;2023-04-28T04:08:56;26.90;;;16.80;;
59938;SDS011;45801;51.810;19.444;2023-04-28T04:11:22;27.40;;;16.50;;
59938;SDS011;45801;51.810;19.444;2023-04-28T04:13:48;27.40;;;16.20;;
59938;SDS011;45801;51.810;19.444;2023-04-28T04:16:14;26.80;;;17.40;;
59938;SDS011;45801;51.810;19.444;2023-04-28T04:18:42;30.30;;;17.10;;
59938;SDS011;45801;51.810;19.444;2023-04-28T04:21:08;29.10;;;18.10;;
59938;SDS011;45801;51.810;19.444;2023-04-28T04:23:34;28.50;;;17.90;;
59938;SDS011;45801;51.810;19.444;2023-04-28T04:26:01;27.00;;;18.60;;
59938;SDS011;45801;51.810;19.444;2023-04-28T04:28:27;31.60;;;18.50;;
59938;SDS011;45801;51.810;19.444;2023-04-28T04:30:53;29.60;;;18.90;;
59938;SDS011;45801;51.810;19.444;2023-04-28T04:33:18;27.30;;;17.80;;
59938;SDS011;45801;51.810;19.444;2023-04-28T04:35:44;29.20;;;17.80;;
59938;SDS011;45801;51.810;19.444;2023-04-28T04:38:11;30.10;;;19.00;;
59938;SDS011;45801;51.810;19.444;2023-04-28T04:40:37;28.00;;;19.00;;
59938;SDS011;45801;51.810;19.444;2023-04-28T04:43:03;27.80;;;18.00;;
59938;SDS011;45801;51.810;19.444;2023-04-28T04:45:29;30.30;;;18.80;;
59938;SDS011;45801;51.810;19.444;2023-04-28T04:47:55;27.00;;;19.50;;
59938;SDS011;45801;51.810;19.444;2023-04-28T04:50:21;29.10;;;19.30;;
59938;SDS011;45801;51.810;19.444;2023-04-28T04:52:47;29.50;;;17.90;;
59938;SDS011;45801;51.810;19.444;2023-04-28T04:55:13;29.70;;;18.60;;
59938;SDS011;45801;51.810;19.444;2023-04-28T04:57:39;30.10;;;18.70;;
59938;SDS011;45801;51.810;19.444;2023-04-28T05:00:04;29.90;;;18.70;;
59938;SDS011;45801;51.810;19.444;2023-04-28T05:02:31;27.60;;;18.20;;
59938;SDS011;45801;51.810;19.444;2023-04-28T05:04:58;28.60;;;19.20;;
59938;SDS011;45801;51.810;19.444;2023-04-28T05:07:24;32.20;;;19.30;;
59938;SDS011;45801;51.810;19.444;2023-04-28T05:09:51;29.10;;;18.30;;
59938;SDS011;45801;51.810;19.444;2023-04-28T05:12:16;27.90;;;18.40;;
59938;SDS011;45801;51.810;19.444;2023-04-28T05:14:43;31.50;;;19.30;;
59938;SDS011;45801;51.810;19.444;2023-04-28T05:17:10;30.40;;;18.40;;
59938;SDS011;45801;51.810;19.444;2023-04-28T05:19:36;30.60;;;18.20;;
59938;SDS011;45801;51.810;19.444;2023-04-28T05:22:02;28.70;;;17.30;;
59938;SDS011;45801;51.810;19.444;2023-04-28T05:24:28;22.80;;;14.90;;
59938;SDS011;45801;51.810;19.444;2023-04-28T05:26:55;27.30;;;17.50;;
59938;SDS011;45801;51.810;19.444;2023-04-28T05:29:23;24.60;;;16.30;;
59938;SDS011;45801;51.810;19.444;2023-04-28T05:31:52;30.10;;;16.10;;
59938;SDS011;45801;51.810;19.444;2023-04-28T05:34:19;24.90;;;15.00;;
59938;SDS011;45801;51.810;19.444;2023-04-28T05:36:45;28.10;;;15.40;;
59938;SDS011;45801;51.810;19.444;2023-04-28T05:39:11;24.90;;;15.70;;
59938;SDS011;45801;51.810;19.444;2023-04-28T05:41:37;27.60;;;14.10;;
59938;SDS011;45801;51.810;19.444;2023-04-28T05:44:03;18.50;;;11.10;;
59938;SDS011;45801;51.810;19.444;2023-04-28T05:46:29;26.80;;;12.30;;
59938;SDS011;45801;51.810;19.444;2023-04-28T05:48:55;17.90;;;10.70;;
59938;SDS011;45801;51.810;19.444;2023-04-28T05:51:22;21.10;;;11.90;;
59938;SDS011;45801;51.810;19.444;2023-04-28T05:53:48;22.20;;;11.50;;
59938;SDS011;45801;51.810;19.444;2023-04-28T05:56:16;18.60;;;10.30;;
59938;SDS011;45801;51.810;19.444;2023-04-28T05:58:42;19.20;;;9.40;;
59938;SDS011;45801;51.810;19.444;2023-04-28T06:01:11;17.10;;;8.80;;
59938;SDS011;45801;51.810;19.444;2023-04-28T06:03:38;17.60;;;9.10;;
59938;SDS011;45801;51.810;19.444;2023-04-28T06:06:07;15.40;;;7.40;;
59938;SDS011;45801;51.810;19.444;2023-04-28T06:08:33;15.50;;;7.40;;
59938;SDS011;45801;51.810;19.444;2023-04-28T06:11:01;14.10;;;7.40;;
59938;SDS011;45801;51.810;19.444;2023-04-28T06:13:26;13.10;;;7.70;;
59938;SDS011;45801;51.810;19.444;2023-04-28T06:15:52;12.80;;;7.40;;
59938;SDS011;45801;51.810;19.444;2023-04-28T06:18:18;13.70;;;7.50;;
59938;SDS011;45801;51.810;19.444;2023-04-28T06:20:44;14.60;;;7.00;;
59938;SDS011;45801;51.810;19.444;2023-04-28T06:23:10;13.70;;;5.70;;
59938;SDS011;45801;51.810;19.444;2023-04-28T06:25:36;12.50;;;6.30;;
59938;SDS011;45801;51.810;19.444;2023-04-28T06:28:02;13.60;;;6.40;;
59938;SDS011;45801;51.810;19.444;2023-04-28T06:30:28;13.00;;;6.20;;
59938;SDS011;45801;51.810;19.444;2023-04-28T06:32:54;13.80;;;5.90;;
59938;SDS011;45801;51.810;19.444;2023-04-28T06:35:22;11.30;;;5.80;;
59938;SDS011;45801;51.810;19.444;2023-04-28T06:37:48;10.90;;;4.90;;
59938;SDS011;45801;51.810;19.444;2023-04-28T06:40:14;11.40;;;5.80;;
59938;SDS011;45801;51.810;19.444;2023-04-28T06:42:40;12.00;;;5.30;;
59938;SDS011;45801;51.810;19.444;2023-04-28T06:45:07;13.60;;;5.90;;
59938;SDS011;45801;51.810;19.444;2023-04-28T06:47:33;11.60;;;5.30;;
59938;SDS011;45801;51.810;19.444;2023-04-28T06:49:59;10.20;;;5.50;;
59938;SDS011;45801;51.810;19.444;2023-04-28T06:52:26;13.30;;;5.20;;
59938;SDS011;45801;51.810;19.444;2023-04-28T06:54:54;12.90;;;5.10;;
59938;SDS011;45801;51.810;19.444;2023-04-28T06:57:19;12.70;;;5.00;;
59938;SDS011;45801;51.810;19.444;2023-04-28T06:59:45;11.10;;;5.80;;
59938;SDS011;45801;51.810;19.444;2023-04-28T07:02:11;14.70;;;6.40;;
59938;SDS011;45801;51.810;19.444;2023-04-28T07:04:37;13.70;;;6.40;;
59938;SDS011;45801;51.810;19.444;2023-04-28T07:07:03;11.60;;;6.20;;
59938;SDS011;45801;51.810;19.444;2023-04-28T07:09:35;10.00;;;4.90;;
59938;SDS011;45801;51.810;19.444;2023-04-28T07:12:02;11.90;;;5.10;;
59938;SDS011;45801;51.810;19.444;2023-04-28T07:14:28;10.50;;;4.20;;
59938;SDS011;45801;51.810;19.444;2023-04-28T07:16:55;9.30;;;4.60;;
59938;SDS011;45801;51.810;19.444;2023-04-28T07:19:21;9.30;;;4.70;;
59938;SDS011;45801;51.810;19.444;2023-04-28T07:21:47;10.60;;;5.20;;
59938;SDS011;45801;51.810;19.444;2023-04-28T07:24:12;9.30;;;4.80;;
59938;SDS011;45801;51.810;19.444;2023-04-28T07:26:38;11.30;;;5.20;;
59938;SDS011;45801;51.810;19.444;2023-04-28T07:29:04;11.10;;;5.20;;
59938;SDS011;45801;51.810;19.444;2023-04-28T07:31:30;11.90;;;4.80;;
59938;SDS011;45801;51.810;19.444;2023-04-28T07:33:56;10.30;;;4.80;;
59938;SDS011;45801;51.810;19.444;2023-04-28T07:36:22;9.50;;;4.60;;
59938;SDS011;45801;51.810;19.444;2023-04-28T07:38:48;8.80;;;4.20;;
59938;SDS011;45801;51.810;19.444;2023-04-28T07:41:15;9.50;;;4.50;;
59938;SDS011;45801;51.810;19.444;2023-04-28T07:43:41;9.90;;;4.10;;
59938;SDS011;45801;51.810;19.444;2023-04-28T07:46:07;10.00;;;3.60;;
59938;SDS011;45801;51.810;19.444;2023-04-28T07:48:33;8.90;;;3.70;;
59938;SDS011;45801;51.810;19.444;2023-04-28T07:51:00;7.80;;;4.00;;
59938;SDS011;45801;51.810;19.444;2023-04-28T07:53:26;8.90;;;3.60;;
59938;SDS011;45801;51.810;19.444;2023-04-28T07:55:51;10.10;;;4.50;;
59938;SDS011;45801;51.810;19.444;2023-04-28T07:58:17;9.10;;;4.40;;
59938;SDS011;45801;51.810;19.444;2023-04-28T08:00:43;10.40;;;4.30;;
59938;SDS011;45801;51.810;19.444;2023-04-28T08:03:09;8.00;;;3.70;;
59938;SDS011;45801;51.810;19.444;2023-04-28T08:05:35;10.30;;;4.40;;
59938;SDS011;45801;51.810;19.444;2023-04-28T08:08:02;10.60;;;4.70;;
59938;SDS011;45801;51.810;19.444;2023-04-28T08:10:28;8.10;;;4.40;;
59938;SDS011;45801;51.810;19.444;2023-04-28T08:12:54;9.70;;;5.00;;
59938;SDS011;45801;51.810;19.444;2023-04-28T08:15:20;8.90;;;4.60;;
59938;SDS011;45801;51.810;19.444;2023-04-28T08:17:46;10.60;;;4.80;;
59938;SDS011;45801;51.810;19.444;2023-04-28T08:20:12;11.00;;;5.20;;
59938;SDS011;45801;51.810;19.444;2023-04-28T08:22:40;13.20;;;5.80;;
59938;SDS011;45801;51.810;19.444;2023-04-28T08:25:06;11.90;;;5.70;;
59938;SDS011;45801;51.810;19.444;2023-04-28T08:27:32;10.70;;;5.30;;
59938;SDS011;45801;51.810;19.444;2023-04-28T08:29:58;8.90;;;5.20;;
59938;SDS011;45801;51.810;19.444;2023-04-28T08:32:24;11.10;;;5.40;;
59938;SDS011;45801;51.810;19.444;2023-04-28T08:34:50;10.70;;;5.00;;
59938;SDS011;45801;51.810;19.444;2023-04-28T08:37:16;10.80;;;5.40;;
59938;SDS011;45801;51.810;19.444;2023-04-28T08:39:42;13.00;;;5.90;;
59938;SDS011;45801;51.810;19.444;2023-04-28T08:42:08;10.70;;;5.30;;
59938;SDS011;45801;51.810;19.444;2023-04-28T08:44:37;10.80;;;5.00;;
59938;SDS011;45801;51.810;19.444;2023-04-28T08:47:11;13.10;;;6.20;;
59938;SDS011;45801;51.810;19.444;2023-04-28T08:49:39;11.10;;;5.30;;
59938;SDS011;45801;51.810;19.444;2023-04-28T08:52:08;10.00;;;5.60;;
59938;SDS011;45801;51.810;19.444;2023-04-28T08:54:36;11.40;;;5.20;;
59938;SDS011;45801;51.810;19.444;2023-04-28T08:57:03;11.20;;;5.50;;
59938;SDS011;45801;51.810;19.444;2023-04-28T08:59:30;11.70;;;5.60;;
59938;SDS011;45801;51.810;19.444;2023-04-28T09:01:55;10.40;;;5.00;;
59938;SDS011;45801;51.810;19.444;2023-04-28T09:04:21;11.30;;;5.70;;
59938;SDS011;45801;51.810;19.444;2023-04-28T09:06:47;12.00;;;6.40;;
59938;SDS011;45801;51.810;19.444;2023-04-28T09:11:52;12.40;;;6.90;;
59938;SDS011;45801;51.810;19.444;2023-04-28T09:14:24;10.90;;;6.40;;
59938;SDS011;45801;51.810;19.444;2023-04-28T09:16:51;13.10;;;6.50;;
59938;SDS011;45801;51.810;19.444;2023-04-28T09:19:17;12.00;;;6.60;;
59938;SDS011;45801;51.810;19.444;2023-04-28T09:21:47;11.90;;;6.50;;
59938;SDS011;45801;51.810;19.444;2023-04-28T09:24:25;13.10;;;6.80;;
59938;SDS011;45801;51.810;19.444;2023-04-28T09:26:56;13.00;;;6.80;;
59938;SDS011;45801;51.810;19.444;2023-04-28T09:29:23;13.20;;;7.00;;
59938;SDS011;45801;51.810;19.444;2023-04-28T09:31:49;14.40;;;7.20;;
59938;SDS011;45801;51.810;19.444;2023-04-28T09:34:14;12.00;;;7.10;;
59938;SDS011;45801;51.810;19.444;2023-04-28T09:36:40;12.90;;;6.80;;
59938;SDS011;45801;51.810;19.444;2023-04-28T09:39:06;11.10;;;6.10;;
59938;SDS011;45801;51.810;19.444;2023-04-28T09:41:36;10.40;;;5.90;;
59938;SDS011;45801;51.810;19.444;2023-04-28T09:44:15;10.40;;;6.30;;
59938;SDS011;45801;51.810;19.444;2023-04-28T09:46:43;12.40;;;6.20;;
59938;SDS011;45801;51.810;19.444;2023-04-28T09:49:10;12.90;;;6.70;;
59938;SDS011;45801;51.810;19.444;2023-04-28T09:51:36;10.20;;;6.60;;
59938;SDS011;45801;51.810;19.444;2023-04-28T09:54:12;15.60;;;6.60;;
59938;SDS011;45801;51.810;19.444;2023-04-28T09:56:43;10.20;;;5.90;;
59938;SDS011;45801;51.810;19.444;2023-04-28T09:59:12;10.40;;;5.20;;
59938;SDS011;45801;51.810;19.444;2023-04-28T10:01:39;10.50;;;6.00;;
59938;SDS011;45801;51.810;19.444;2023-04-28T10:04:06;11.90;;;5.90;;
59938;SDS011;45801;51.810;19.444;2023-04-28T10:06:35;12.10;;;6.00;;
59938;SDS011;45801;51.810;19.444;2023-04-28T10:09:01;12.30;;;6.10;;
59938;SDS011;45801;51.810;19.444;2023-04-28T10:11:27;10.90;;;6.10;;
59938;SDS011;45801;51.810;19.444;2023-04-28T10:13:55;12.00;;;6.00;;
59938;SDS011;45801;51.810;19.444;2023-04-28T10:16:21;11.80;;;6.40;;
59938;SDS011;45801;51.810;19.444;2023-04-28T10:18:47;10.50;;;5.90;;
59938;SDS011;45801;51.810;19.444;2023-04-28T10:21:16;11.70;;;6.60;;
59938;SDS011;45801;51.810;19.444;2023-04-28T10:27:10;11.90;;;5.70;;
59938;SDS011;45801;51.810;19.444;2023-04-28T10:29:23;11.40;;;6.30;;
59938;SDS011;45801;51.810;19.444;2023-04-28T10:34:41;10.40;;;6.60;;
59938;SDS011;45801;51.810;19.444;2023-04-28T10:37:07;10.90;;;6.20;;
59938;SDS011;45801;51.810;19.444;2023-04-28T10:39:33;10.50;;;6.50;;
59938;SDS011;45801;51.810;19.444;2023-04-28T10:41:59;10.00;;;6.30;;
59938;SDS011;45801;51.810;19.444;2023-04-28T10:47:01;12.10;;;6.10;;
59938;SDS011;45801;51.810;19.444;2023-04-28T11:00:39;12.50;;;7.00;;
59938;SDS011;45801;51.810;19.444;2023-04-28T11:03:06;12.50;;;7.50;;
59938;SDS011;45801;51.810;19.444;2023-04-28T11:05:32;12.20;;;6.80;;
59938;SDS011;45801;51.810;19.444;2023-04-28T11:08:29;12.40;;;7.70;;
59938;SDS011;45801;51.810;19.444;2023-04-28T11:11:10;10.00;;;6.80;;
59938;SDS011;45801;51.810;19.444;2023-04-28T11:13:39;12.30;;;7.00;;
59938;SDS011;45801;51.810;19.444;2023-04-28T11:16:06;11.40;;;7.60;;
59938;SDS011;45801;51.810;19.444;2023-04-28T11:21:24;12.20;;;7.50;;
59938;SDS011;45801;51.810;19.444;2023-04-28T11:23:53;11.20;;;5.40;;
59938;SDS011;45801;51.810;19.444;2023-04-28T11:26:19;12.00;;;7.00;;
59938;SDS011;45801;51.810;19.444;2023-04-28T11:28:52;11.60;;;7.60;;
59938;SDS011;45801;51.810;19.444;2023-04-28T11:31:20;15.60;;;7.30;;
59938;SDS011;45801;51.810;19.444;2023-04-28T11:39:01;11.80;;;6.60;;
59938;SDS011;45801;51.810;19.444;2023-04-28T11:41:30;12.50;;;7.50;;
59938;SDS011;45801;51.810;19.444;2023-04-28T11:43:56;11.00;;;6.80;;
59938;SDS011;45801;51.810;19.444;2023-04-28T11:46:24;12.90;;;7.10;;
59938;SDS011;45801;51.810;19.444;2023-04-28T11:49:01;12.50;;;7.00;;
59938;SDS011;45801;51.810;19.444;2023-04-28T11:51:29;11.00;;;5.70;;
59938;SDS011;45801;51.810;19.444;2023-04-28T11:53:56;10.80;;;6.40;;
59938;SDS011;45801;51.810;19.444;2023-04-28T11:56:22;11.30;;;6.70;;
59938;SDS011;45801;51.810;19.444;2023-04-28T11:59:01;12.90;;;7.80;;
59938;SDS011;45801;51.810;19.444;2023-04-28T12:01:30;11.10;;;6.50;;
59938;SDS011;45801;51.810;19.444;2023-04-28T12:03:57;11.00;;;6.40;;
59938;SDS011;45801;51.810;19.444;2023-04-28T12:06:23;12.00;;;7.10;;
59938;SDS011;45801;51.810;19.444;2023-04-28T12:08:49;13.20;;;7.00;;
59938;SDS011;45801;51.810;19.444;2023-04-28T12:11:17;11.30;;;7.00;;
59938;SDS011;45801;51.810;19.444;2023-04-28T12:13:43;11.80;;;5.70;;
59938;SDS011;45801;51.810;19.444;2023-04-28T12:16:35;11.20;;;6.00;;
59938;SDS011;45801;51.810;19.444;2023-04-28T12:19:03;11.20;;;6.50;;
59938;SDS011;45801;51.810;19.444;2023-04-28T12:21:32;12.70;;;6.50;;
59938;SDS011;45801;51.810;19.444;2023-04-28T12:23:58;10.60;;;6.20;;
59938;SDS011;45801;51.810;19.444;2023-04-28T12:26:24;11.70;;;6.50;;
59938;SDS011;45801;51.810;19.444;2023-04-28T12:28:50;11.30;;;6.40;;
59938;SDS011;45801;51.810;19.444;2023-04-28T12:31:15;12.70;;;6.70;;
59938;SDS011;45801;51.810;19.444;2023-04-28T12:33:41;11.40;;;6.30;;
59938;SDS011;45801;51.810;19.444;2023-04-28T12:36:09;11.90;;;6.40;;
59938;SDS011;45801;51.810;19.444;2023-04-28T12:38:35;11.50;;;6.40;;
59938;SDS011;45801;51.810;19.444;2023-04-28T12:41:02;11.20;;;6.20;;
59938;SDS011;45801;51.810;19.444;2023-04-28T12:43:28;10.50;;;5.30;;
59938;SDS011;45801;51.810;19.444;2023-04-28T12:45:54;12.70;;;6.10;;
59938;SDS011;45801;51.810;19.444;2023-04-28T12:48:21;13.10;;;6.30;;
59938;SDS011;45801;51.810;19.444;2023-04-28T12:50:51;13.40;;;7.10;;
59938;SDS011;45801;51.810;19.444;2023-04-28T12:53:17;9.80;;;5.40;;
59938;SDS011;45801;51.810;19.444;2023-04-28T12:55:43;10.90;;;6.80;;
59938;SDS011;45801;51.810;19.444;2023-04-28T12:58:09;10.00;;;5.80;;
59938;SDS011;45801;51.810;19.444;2023-04-28T13:00:34;10.10;;;5.80;;
59938;SDS011;45801;51.810;19.444;2023-04-28T13:03:00;11.40;;;5.60;;
59938;SDS011;45801;51.810;19.444;2023-04-28T13:05:26;8.80;;;5.10;;
59938;SDS011;45801;51.810;19.444;2023-04-28T13:07:52;10.90;;;5.40;;
59938;SDS011;45801;51.810;19.444;2023-04-28T13:10:18;9.80;;;6.00;;
59938;SDS011;45801;51.810;19.444;2023-04-28T13:12:45;8.00;;;4.40;;
59938;SDS011;45801;51.810;19.444;2023-04-28T13:15:11;8.40;;;3.90;;
59938;SDS011;45801;51.810;19.444;2023-04-28T13:17:37;10.80;;;6.00;;
59938;SDS011;45801;51.810;19.444;2023-04-28T13:20:04;12.90;;;5.10;;
59938;SDS011;45801;51.810;19.444;2023-04-28T13:22:31;9.80;;;4.90;;
59938;SDS011;45801;51.810;19.444;2023-04-28T13:24:56;11.40;;;5.90;;
59938;SDS011;45801;51.810;19.444;2023-04-28T13:27:22;13.20;;;6.60;;
59938;SDS011;45801;51.810;19.444;2023-04-28T13:29:48;10.10;;;5.30;;
59938;SDS011;45801;51.810;19.444;2023-04-28T13:32:14;10.00;;;6.10;;
59938;SDS011;45801;51.810;19.444;2023-04-28T13:34:40;10.50;;;6.20;;
59938;SDS011;45801;51.810;19.444;2023-04-28T13:37:06;13.20;;;6.20;;
59938;SDS011;45801;51.810;19.444;2023-04-28T13:39:32;11.00;;;6.20;;
59938;SDS011;45801;51.810;19.444;2023-04-28T13:41:58;9.40;;;5.30;;
59938;SDS011;45801;51.810;19.444;2023-04-28T13:44:24;11.70;;;5.70;;
59938;SDS011;45801;51.810;19.444;2023-04-28T13:46:51;12.90;;;6.20;;
59938;SDS011;45801;51.810;19.444;2023-04-28T13:49:17;11.30;;;6.00;;
59938;SDS011;45801;51.810;19.444;2023-04-28T13:51:43;11.30;;;6.50;;
59938;SDS011;45801;51.810;19.444;2023-04-28T13:54:10;11.10;;;5.60;;
59938;SDS011;45801;51.810;19.444;2023-04-28T13:56:36;11.00;;;5.40;;
59938;SDS011;45801;51.810;19.444;2023-04-28T13:59:02;12.30;;;6.20;;
59938;SDS011;45801;51.810;19.444;2023-04-28T14:01:28;9.80;;;5.50;;
59938;SDS011;45801;51.810;19.444;2023-04-28T14:03:54;11.80;;;6.10;;
59938;SDS011;45801;51.810;19.444;2023-04-28T14:06:20;12.60;;;5.50;;
59938;SDS011;45801;51.810;19.444;2023-04-28T14:08:46;9.40;;;4.80;;
59938;SDS011;45801;51.810;19.444;2023-04-28T14:11:12;9.70;;;5.20;;
59938;SDS011;45801;51.810;19.444;2023-04-28T14:13:38;14.10;;;5.50;;
59938;SDS011;45801;51.810;19.444;2023-04-28T14:16:04;10.40;;;5.40;;
59938;SDS011;45801;51.810;19.444;2023-04-28T14:22:11;12.30;;;5.90;;
59938;SDS011;45801;51.810;19.444;2023-04-28T14:24:36;11.60;;;5.30;;
59938;SDS011;45801;51.810;19.444;2023-04-28T14:27:02;11.10;;;5.80;;
59938;SDS011;45801;51.810;19.444;2023-04-28T14:29:29;10.70;;;5.50;;
59938;SDS011;45801;51.810;19.444;2023-04-28T14:31:54;11.00;;;5.10;;
59938;SDS011;45801;51.810;19.444;2023-04-28T14:34:20;10.20;;;5.00;;
59938;SDS011;45801;51.810;19.444;2023-04-28T14:36:46;10.50;;;5.50;;
59938;SDS011;45801;51.810;19.444;2023-04-28T14:39:13;10.00;;;5.70;;
59938;SDS011;45801;51.810;19.444;2023-04-28T14:41:38;10.90;;;5.20;;
59938;SDS011;45801;51.810;19.444;2023-04-28T14:44:04;9.90;;;5.40;;
59938;SDS011;45801;51.810;19.444;2023-04-28T14:46:30;12.50;;;5.10;;
59938;SDS011;45801;51.810;19.444;2023-04-28T14:48:56;12.50;;;5.20;;
59938;SDS011;45801;51.810;19.444;2023-04-28T14:51:23;10.30;;;5.30;;